Imagination — C6FN2 — position and weather

sailwx.info

Track history (hours):
 
Tides and Currents Weather Stations Pressure Air Temp Water Temp Dewpoint Dewpoint Depression Visibility Wind Speed Wind Dir Waves Ship Positions

Imagination

Operator: Carnival Cruise Lines

Last reported at 2020-Sep-12 20:36 UTC. Time now 2020-Oct-28 05:46 UTC.
Position N 37°04' E 023°56'.
Warning: this ship's position is 45 days out of date.

Type: Passenger vessel. MMSI: 309933000.

Date/timePositionNaut miles runAvg speedWind from/ knotsBaromVisibWave heightAir tempDewpointWater temp
2020-Sep-12 20:36N 37°04' E 023°56'2 7.4
2020-Sep-12 20:18N 37°02' E 023°54'406 8.8
2020-Sep-10 22:00N 36°14' E 015°32'610.1
2020-Sep-10 21:22N 36°15' E 015°24'410.4
2020-Sep-10 20:59N 36°15' E 015°19'1610.6
2020-Sep-10 19:30N 36°16' E 014°59'5210.5
2020-Sep-10 14:30N 36°37' E 014°00'3210.7
2020-Sep-10 11:30N 36°51' E 013°24'510.7
2020-Sep-10 11:00N 36°53' E 013°17'1610.5
2020-Sep-10 09:30N 36°59' E 012°59'1610.5
2020-Sep-10 08:00N 37°07' E 012°42'  
2020-Sep-07 08:22N 36°24' W 002°01'411.3
2020-Sep-07 08:00N 36°23' W 002°06'3111.1
2020-Sep-07 05:14N 36°18' W 002°44'610.3
2020-Sep-07 04:37N 36°17' W 002°52'8410.9
2020-Sep-06 20:55N 36°05' W 004°35'6812.0
2020-Sep-06 15:18N 35°54' W 005°57'3713.1
2020-Sep-06 12:29N 35°50' W 006°42'3813.9
2020-Sep-06 09:46N 35°47' W 007°29'7415.6
2020-Sep-06 05:00N 35°38' W 008°59'3216.0
2020-Sep-06 03:01N 35°35' W 009°38'815.5
2020-Sep-06 02:31N 35°34' W 009°48'3915.6
2020-Sep-06 00:01N 35°30' W 010°36'11515.3
2020-Sep-05 16:31N 35°12' W 012°55'815.3
2020-Sep-05 16:01N 35°11' W 013°04'3015.2
2020-Sep-05 14:01N 35°05' W 013°40'2914.7
2020-Sep-05 12:00N 35°00' W 014°16'6115.0
2020-Sep-05 07:57N 34°50' W 015°29'1415.0
2020-Sep-05 07:01N 34°48' W 015°45'4115.1
2020-Sep-05 04:16N 34°41' W 016°35'415.0
2020-Sep-05 04:01N 34°41' W 016°40'1714.6
2020-Sep-05 02:49N 34°38' W 017°01'  
Track history (hours):
 
Tides and Currents Weather Stations Pressure Air Temp Water Temp Dewpoint Dewpoint Depression Visibility Wind Speed Wind Dir Waves Ship Positions

Imagination

Operator: Carnival Cruise Lines

Last reported at 2020-Sep-12 20:36 UTC. Time now 2020-Oct-28 05:46 UTC.
Position N 37°04' E 023°56'.
Warning: this ship's position is 45 days out of date.

Type: Passenger vessel. MMSI: 309933000.

Date/timePositionNaut miles runAvg speedWind from/ knotsBaromVisibWave heightAir tempDewpointWater temp
2020-Sep-12 20:36N 37°04' E 023°56'2 7.4
2020-Sep-12 20:18N 37°02' E 023°54'406 8.8
2020-Sep-10 22:00N 36°14' E 015°32'610.1
2020-Sep-10 21:22N 36°15' E 015°24'410.4
2020-Sep-10 20:59N 36°15' E 015°19'1610.6
2020-Sep-10 19:30N 36°16' E 014°59'5210.5
2020-Sep-10 14:30N 36°37' E 014°00'3210.7
2020-Sep-10 11:30N 36°51' E 013°24'510.7
2020-Sep-10 11:00N 36°53' E 013°17'1610.5
2020-Sep-10 09:30N 36°59' E 012°59'1610.5
2020-Sep-10 08:00N 37°07' E 012°42'  
2020-Sep-07 08:22N 36°24' W 002°01'411.3
2020-Sep-07 08:00N 36°23' W 002°06'3111.1
2020-Sep-07 05:14N 36°18' W 002°44'610.3
2020-Sep-07 04:37N 36°17' W 002°52'8410.9
2020-Sep-06 20:55N 36°05' W 004°35'6812.0
2020-Sep-06 15:18N 35°54' W 005°57'3713.1
2020-Sep-06 12:29N 35°50' W 006°42'3813.9
2020-Sep-06 09:46N 35°47' W 007°29'7415.6
2020-Sep-06 05:00N 35°38' W 008°59'3216.0
2020-Sep-06 03:01N 35°35' W 009°38'815.5
2020-Sep-06 02:31N 35°34' W 009°48'3915.6
2020-Sep-06 00:01N 35°30' W 010°36'11515.3
2020-Sep-05 16:31N 35°12' W 012°55'815.3
2020-Sep-05 16:01N 35°11' W 013°04'3015.2
2020-Sep-05 14:01N 35°05' W 013°40'2914.7
2020-Sep-05 12:00N 35°00' W 014°16'6115.0
2020-Sep-05 07:57N 34°50' W 015°29'1415.0
2020-Sep-05 07:01N 34°48' W 015°45'4115.1
2020-Sep-05 04:16N 34°41' W 016°35'415.0
2020-Sep-05 04:01N 34°41' W 016°40'1714.6
2020-Sep-05 02:49N 34°38' W 017°01'  

Dump ship's entire track history